sensor_id;sensor_type;location;lat;lon;timestamp;temperature;humidity
14709;DHT22;7445;50.774;4.944;2022-10-15T00:01:12;14.20;99.90
14709;DHT22;7445;50.774;4.944;2022-10-15T00:03:40;14.20;99.90
14709;DHT22;7445;50.774;4.944;2022-10-15T00:06:15;14.20;99.90
14709;DHT22;7445;50.774;4.944;2022-10-15T00:08:43;14.20;99.90
14709;DHT22;7445;50.774;4.944;2022-10-15T00:11:29;14.20;99.90
14709;DHT22;7445;50.774;4.944;2022-10-15T00:14:03;14.20;99.90
14709;DHT22;7445;50.774;4.944;2022-10-15T00:16:42;14.10;99.90
14709;DHT22;7445;50.774;4.944;2022-10-15T00:19:12;14.20;99.90
14709;DHT22;7445;50.774;4.944;2022-10-15T00:21:47;14.10;99.90
14709;DHT22;7445;50.774;4.944;2022-10-15T00:24:19;14.10;99.90
14709;DHT22;7445;50.774;4.944;2022-10-15T00:26:45;14.10;99.90
14709;DHT22;7445;50.774;4.944;2022-10-15T00:29:13;14.20;99.90
14709;DHT22;7445;50.774;4.944;2022-10-15T00:31:39;14.10;99.90
14709;DHT22;7445;50.774;4.944;2022-10-15T00:34:05;14.10;99.90
14709;DHT22;7445;50.774;4.944;2022-10-15T00:36:34;14.10;99.90
14709;DHT22;7445;50.774;4.944;2022-10-15T00:39:02;14.10;99.90
14709;DHT22;7445;50.774;4.944;2022-10-15T00:41:34;14.20;99.90
14709;DHT22;7445;50.774;4.944;2022-10-15T00:44:45;14.10;99.90
14709;DHT22;7445;50.774;4.944;2022-10-15T00:47:23;14.20;99.90
14709;DHT22;7445;50.774;4.944;2022-10-15T00:50:03;14.10;99.90
14709;DHT22;7445;50.774;4.944;2022-10-15T00:52:54;14.20;99.90
14709;DHT22;7445;50.774;4.944;2022-10-15T00:55:39;14.10;99.90
14709;DHT22;7445;50.774;4.944;2022-10-15T00:58:19;14.10;99.90
14709;DHT22;7445;50.774;4.944;2022-10-15T01:00:47;14.10;99.90
14709;DHT22;7445;50.774;4.944;2022-10-15T01:03:15;14.10;99.90
14709;DHT22;7445;50.774;4.944;2022-10-15T01:05:46;14.10;99.90
14709;DHT22;7445;50.774;4.944;2022-10-15T01:08:19;14.10;99.90
14709;DHT22;7445;50.774;4.944;2022-10-15T01:11:35;14.10;99.90
14709;DHT22;7445;50.774;4.944;2022-10-15T01:14:17;14.10;99.90
14709;DHT22;7445;50.774;4.944;2022-10-15T01:22:16;14.00;99.90
14709;DHT22;7445;50.774;4.944;2022-10-15T01:30:46;14.00;99.90
14709;DHT22;7445;50.774;4.944;2022-10-15T01:33:31;14.00;99.90
14709;DHT22;7445;50.774;4.944;2022-10-15T01:38:54;14.00;99.90
14709;DHT22;7445;50.774;4.944;2022-10-15T01:41:36;14.00;99.90
14709;DHT22;7445;50.774;4.944;2022-10-15T01:44:12;14.00;99.90
14709;DHT22;7445;50.774;4.944;2022-10-15T01:46:41;14.10;99.90
14709;DHT22;7445;50.774;4.944;2022-10-15T01:49:14;14.10;99.90
14709;DHT22;7445;50.774;4.944;2022-10-15T01:51:42;14.10;99.90
14709;DHT22;7445;50.774;4.944;2022-10-15T01:54:14;14.10;99.90
14709;DHT22;7445;50.774;4.944;2022-10-15T01:56:47;14.10;99.90
14709;DHT22;7445;50.774;4.944;2022-10-15T01:59:18;14.10;99.90
14709;DHT22;7445;50.774;4.944;2022-10-15T02:01:46;14.10;99.90
14709;DHT22;7445;50.774;4.944;2022-10-15T02:04:22;14.10;99.90
14709;DHT22;7445;50.774;4.944;2022-10-15T02:15:27;14.10;99.90
14709;DHT22;7445;50.774;4.944;2022-10-15T02:18:04;14.10;99.90
14709;DHT22;7445;50.774;4.944;2022-10-15T02:20:46;14.20;99.90
14709;DHT22;7445;50.774;4.944;2022-10-15T02:23:16;14.20;99.90
14709;DHT22;7445;50.774;4.944;2022-10-15T02:25:52;14.10;99.90
14709;DHT22;7445;50.774;4.944;2022-10-15T02:28:20;14.20;99.90
14709;DHT22;7445;50.774;4.944;2022-10-15T02:30:55;14.10;99.90
14709;DHT22;7445;50.774;4.944;2022-10-15T02:33:29;14.10;99.90
14709;DHT22;7445;50.774;4.944;2022-10-15T02:35:57;14.10;99.90
14709;DHT22;7445;50.774;4.944;2022-10-15T02:38:27;14.20;99.90
14709;DHT22;7445;50.774;4.944;2022-10-15T02:40:57;14.10;99.90
14709;DHT22;7445;50.774;4.944;2022-10-15T02:43:23;14.10;99.90
14709;DHT22;7445;50.774;4.944;2022-10-15T02:45:50;14.10;99.90
14709;DHT22;7445;50.774;4.944;2022-10-15T02:48:16;14.10;99.90
14709;DHT22;7445;50.774;4.944;2022-10-15T02:50:41;14.10;99.90
14709;DHT22;7445;50.774;4.944;2022-10-15T02:53:08;14.10;99.90
14709;DHT22;7445;50.774;4.944;2022-10-15T02:55:35;14.10;99.90
14709;DHT22;7445;50.774;4.944;2022-10-15T02:58:01;14.00;99.90
14709;DHT22;7445;50.774;4.944;2022-10-15T03:00:28;13.90;99.90
14709;DHT22;7445;50.774;4.944;2022-10-15T03:02:54;13.90;99.90
14709;DHT22;7445;50.774;4.944;2022-10-15T03:05:20;13.80;99.90
14709;DHT22;7445;50.774;4.944;2022-10-15T03:07:46;13.90;99.90
14709;DHT22;7445;50.774;4.944;2022-10-15T03:10:12;13.90;99.90
14709;DHT22;7445;50.774;4.944;2022-10-15T03:12:42;13.90;99.90
14709;DHT22;7445;50.774;4.944;2022-10-15T03:15:18;13.90;99.90
14709;DHT22;7445;50.774;4.944;2022-10-15T03:17:45;13.90;99.90
14709;DHT22;7445;50.774;4.944;2022-10-15T03:20:16;13.90;99.90
14709;DHT22;7445;50.774;4.944;2022-10-15T03:22:41;14.00;99.90
14709;DHT22;7445;50.774;4.944;2022-10-15T03:25:09;13.90;99.90
14709;DHT22;7445;50.774;4.944;2022-10-15T03:27:47;13.90;99.90
14709;DHT22;7445;50.774;4.944;2022-10-15T03:30:13;13.90;99.90
14709;DHT22;7445;50.774;4.944;2022-10-15T03:32:40;13.80;99.90
14709;DHT22;7445;50.774;4.944;2022-10-15T03:35:28;13.70;99.90
14709;DHT22;7445;50.774;4.944;2022-10-15T03:37:55;13.60;99.90
14709;DHT22;7445;50.774;4.944;2022-10-15T03:40:21;13.60;99.90
14709;DHT22;7445;50.774;4.944;2022-10-15T03:42:50;13.50;99.90
14709;DHT22;7445;50.774;4.944;2022-10-15T03:45:21;13.40;99.90
14709;DHT22;7445;50.774;4.944;2022-10-15T03:47:48;13.30;99.90
14709;DHT22;7445;50.774;4.944;2022-10-15T03:50:17;13.30;99.90
14709;DHT22;7445;50.774;4.944;2022-10-15T03:52:45;13.20;99.90
14709;DHT22;7445;50.774;4.944;2022-10-15T03:55:32;13.20;99.90
14709;DHT22;7445;50.774;4.944;2022-10-15T03:57:58;13.10;99.90
14709;DHT22;7445;50.774;4.944;2022-10-15T04:00:25;13.00;99.90
14709;DHT22;7445;50.774;4.944;2022-10-15T04:02:51;13.00;99.90
14709;DHT22;7445;50.774;4.944;2022-10-15T04:05:19;13.00;99.90
14709;DHT22;7445;50.774;4.944;2022-10-15T04:07:47;13.00;99.90
14709;DHT22;7445;50.774;4.944;2022-10-15T04:10:15;13.00;99.90
14709;DHT22;7445;50.774;4.944;2022-10-15T04:12:41;13.00;99.90
14709;DHT22;7445;50.774;4.944;2022-10-15T04:15:11;12.90;99.90
14709;DHT22;7445;50.774;4.944;2022-10-15T04:17:39;12.90;99.90
14709;DHT22;7445;50.774;4.944;2022-10-15T04:20:07;12.90;99.90
14709;DHT22;7445;50.774;4.944;2022-10-15T04:22:32;12.90;99.90
14709;DHT22;7445;50.774;4.944;2022-10-15T04:24:58;12.90;99.90
14709;DHT22;7445;50.774;4.944;2022-10-15T04:27:25;12.90;99.90
14709;DHT22;7445;50.774;4.944;2022-10-15T04:29:54;12.80;99.90
14709;DHT22;7445;50.774;4.944;2022-10-15T04:32:19;12.90;99.90
14709;DHT22;7445;50.774;4.944;2022-10-15T04:34:48;12.80;99.90
14709;DHT22;7445;50.774;4.944;2022-10-15T04:37:13;12.80;99.90
14709;DHT22;7445;50.774;4.944;2022-10-15T04:39:39;12.90;99.90
14709;DHT22;7445;50.774;4.944;2022-10-15T04:42:05;12.80;99.90
14709;DHT22;7445;50.774;4.944;2022-10-15T04:44:35;12.80;99.90
14709;DHT22;7445;50.774;4.944;2022-10-15T04:47:11;12.80;99.90
14709;DHT22;7445;50.774;4.944;2022-10-15T04:49:45;12.80;99.90
14709;DHT22;7445;50.774;4.944;2022-10-15T04:52:37;12.80;99.90
14709;DHT22;7445;50.774;4.944;2022-10-15T04:55:05;12.80;99.90
14709;DHT22;7445;50.774;4.944;2022-10-15T04:57:31;12.70;99.90
14709;DHT22;7445;50.774;4.944;2022-10-15T04:59:59;12.70;99.90
14709;DHT22;7445;50.774;4.944;2022-10-15T05:02:25;12.80;99.90
14709;DHT22;7445;50.774;4.944;2022-10-15T05:04:50;12.70;99.90
14709;DHT22;7445;50.774;4.944;2022-10-15T05:07:23;12.70;99.90
14709;DHT22;7445;50.774;4.944;2022-10-15T05:09:49;12.80;99.90
14709;DHT22;7445;50.774;4.944;2022-10-15T05:12:14;12.70;99.90
14709;DHT22;7445;50.774;4.944;2022-10-15T05:14:40;12.80;99.90
14709;DHT22;7445;50.774;4.944;2022-10-15T05:17:06;12.80;99.90
14709;DHT22;7445;50.774;4.944;2022-10-15T05:19:31;12.80;99.90
14709;DHT22;7445;50.774;4.944;2022-10-15T05:21:57;12.90;99.90
14709;DHT22;7445;50.774;4.944;2022-10-15T05:24:23;12.90;99.90
14709;DHT22;7445;50.774;4.944;2022-10-15T05:26:48;12.90;99.90
14709;DHT22;7445;50.774;4.944;2022-10-15T05:29:14;13.00;99.90
14709;DHT22;7445;50.774;4.944;2022-10-15T05:31:43;13.00;99.90
14709;DHT22;7445;50.774;4.944;2022-10-15T05:34:12;13.10;99.90
14709;DHT22;7445;50.774;4.944;2022-10-15T05:36:46;13.10;99.90
14709;DHT22;7445;50.774;4.944;2022-10-15T05:39:14;13.10;99.90
14709;DHT22;7445;50.774;4.944;2022-10-15T05:41:42;13.20;99.90
14709;DHT22;7445;50.774;4.944;2022-10-15T05:44:10;13.20;99.90
14709;DHT22;7445;50.774;4.944;2022-10-15T05:46:37;13.20;99.90
14709;DHT22;7445;50.774;4.944;2022-10-15T05:49:03;13.20;99.90
14709;DHT22;7445;50.774;4.944;2022-10-15T05:51:36;13.30;99.90
14709;DHT22;7445;50.774;4.944;2022-10-15T05:54:02;13.30;99.90
14709;DHT22;7445;50.774;4.944;2022-10-15T05:56:28;13.30;99.90
14709;DHT22;7445;50.774;4.944;2022-10-15T05:58:55;13.40;99.90
14709;DHT22;7445;50.774;4.944;2022-10-15T06:01:22;13.40;99.90
14709;DHT22;7445;50.774;4.944;2022-10-15T06:03:50;13.40;99.90
14709;DHT22;7445;50.774;4.944;2022-10-15T06:06:26;13.50;99.90
14709;DHT22;7445;50.774;4.944;2022-10-15T06:08:53;13.50;99.90
14709;DHT22;7445;50.774;4.944;2022-10-15T06:11:19;13.60;99.90
14709;DHT22;7445;50.774;4.944;2022-10-15T06:13:47;13.50;99.90
14709;DHT22;7445;50.774;4.944;2022-10-15T06:16:20;13.60;99.90
14709;DHT22;7445;50.774;4.944;2022-10-15T06:18:47;13.60;99.90
14709;DHT22;7445;50.774;4.944;2022-10-15T06:21:12;13.60;99.90
14709;DHT22;7445;50.774;4.944;2022-10-15T06:23:39;13.70;99.90
14709;DHT22;7445;50.774;4.944;2022-10-15T06:26:07;13.70;99.90
14709;DHT22;7445;50.774;4.944;2022-10-15T06:28:34;13.70;99.90
14709;DHT22;7445;50.774;4.944;2022-10-15T06:31:01;13.80;99.90
14709;DHT22;7445;50.774;4.944;2022-10-15T06:33:28;13.80;99.90
14709;DHT22;7445;50.774;4.944;2022-10-15T06:36:16;13.80;99.90
14709;DHT22;7445;50.774;4.944;2022-10-15T06:38:46;13.90;99.90
14709;DHT22;7445;50.774;4.944;2022-10-15T06:41:16;13.90;99.90
14709;DHT22;7445;50.774;4.944;2022-10-15T06:43:44;13.90;99.90
14709;DHT22;7445;50.774;4.944;2022-10-15T06:46:11;13.90;99.90
14709;DHT22;7445;50.774;4.944;2022-10-15T06:48:39;14.00;99.90
14709;DHT22;7445;50.774;4.944;2022-10-15T06:51:08;13.90;99.90
14709;DHT22;7445;50.774;4.944;2022-10-15T06:53:34;13.90;99.90
14709;DHT22;7445;50.774;4.944;2022-10-15T06:56:07;14.00;99.90
14709;DHT22;7445;50.774;4.944;2022-10-15T06:58:34;14.00;99.90
14709;DHT22;7445;50.774;4.944;2022-10-15T07:01:05;14.10;99.90
14709;DHT22;7445;50.774;4.944;2022-10-15T07:03:31;14.20;99.90
14709;DHT22;7445;50.774;4.944;2022-10-15T07:06:02;14.20;99.90
14709;DHT22;7445;50.774;4.944;2022-10-15T07:08:28;14.40;99.90
14709;DHT22;7445;50.774;4.944;2022-10-15T07:10:54;14.40;99.90
14709;DHT22;7445;50.774;4.944;2022-10-15T07:13:20;14.40;99.90
14709;DHT22;7445;50.774;4.944;2022-10-15T07:15:45;14.50;99.90
14709;DHT22;7445;50.774;4.944;2022-10-15T07:18:14;14.60;99.90
14709;DHT22;7445;50.774;4.944;2022-10-15T07:20:39;14.60;99.90
14709;DHT22;7445;50.774;4.944;2022-10-15T07:23:07;14.70;99.90
14709;DHT22;7445;50.774;4.944;2022-10-15T07:25:33;14.80;99.90
14709;DHT22;7445;50.774;4.944;2022-10-15T07:27:58;14.90;99.90
14709;DHT22;7445;50.774;4.944;2022-10-15T07:30:24;15.00;99.90
14709;DHT22;7445;50.774;4.944;2022-10-15T07:32:57;15.10;99.90
14709;DHT22;7445;50.774;4.944;2022-10-15T07:35:24;15.30;99.90
14709;DHT22;7445;50.774;4.944;2022-10-15T07:37:50;15.40;99.90
14709;DHT22;7445;50.774;4.944;2022-10-15T07:40:16;15.50;99.90
14709;DHT22;7445;50.774;4.944;2022-10-15T07:42:42;15.50;99.90
14709;DHT22;7445;50.774;4.944;2022-10-15T07:45:08;15.50;99.90
14709;DHT22;7445;50.774;4.944;2022-10-15T07:47:34;15.50;99.90
14709;DHT22;7445;50.774;4.944;2022-10-15T07:49:59;15.50;99.90
14709;DHT22;7445;50.774;4.944;2022-10-15T07:52:25;15.50;99.90
14709;DHT22;7445;50.774;4.944;2022-10-15T07:54:51;15.50;99.90
14709;DHT22;7445;50.774;4.944;2022-10-15T07:57:18;15.50;99.90
14709;DHT22;7445;50.774;4.944;2022-10-15T07:59:43;15.60;99.90
14709;DHT22;7445;50.774;4.944;2022-10-15T08:02:14;15.70;99.90
14709;DHT22;7445;50.774;4.944;2022-10-15T08:04:41;15.70;99.90
14709;DHT22;7445;50.774;4.944;2022-10-15T08:07:06;15.80;99.90
14709;DHT22;7445;50.774;4.944;2022-10-15T08:09:32;15.80;99.90
14709;DHT22;7445;50.774;4.944;2022-10-15T08:11:58;15.80;99.90
14709;DHT22;7445;50.774;4.944;2022-10-15T08:14:24;15.90;99.90
14709;DHT22;7445;50.774;4.944;2022-10-15T08:16:49;15.90;99.90
14709;DHT22;7445;50.774;4.944;2022-10-15T08:19:15;15.90;99.90
14709;DHT22;7445;50.774;4.944;2022-10-15T08:21:43;16.00;99.90
14709;DHT22;7445;50.774;4.944;2022-10-15T08:24:09;16.10;99.90
14709;DHT22;7445;50.774;4.944;2022-10-15T08:26:34;16.20;99.90
14709;DHT22;7445;50.774;4.944;2022-10-15T08:29:00;16.40;99.90
14709;DHT22;7445;50.774;4.944;2022-10-15T08:31:26;16.50;99.90
14709;DHT22;7445;50.774;4.944;2022-10-15T08:33:51;16.50;99.90
14709;DHT22;7445;50.774;4.944;2022-10-15T08:36:17;16.60;99.90
14709;DHT22;7445;50.774;4.944;2022-10-15T08:38:43;16.70;99.90
14709;DHT22;7445;50.774;4.944;2022-10-15T08:41:28;16.70;99.90
14709;DHT22;7445;50.774;4.944;2022-10-15T08:43:55;16.70;99.90
14709;DHT22;7445;50.774;4.944;2022-10-15T08:46:43;16.70;99.90
14709;DHT22;7445;50.774;4.944;2022-10-15T08:52:14;16.90;99.90
14709;DHT22;7445;50.774;4.944;2022-10-15T08:54:41;17.00;99.90
14709;DHT22;7445;50.774;4.944;2022-10-15T08:57:23;17.30;99.90
14709;DHT22;7445;50.774;4.944;2022-10-15T09:00:02;17.40;99.90
14709;DHT22;7445;50.774;4.944;2022-10-15T09:02:37;17.50;99.90
14709;DHT22;7445;50.774;4.944;2022-10-15T09:05:27;17.50;99.90
14709;DHT22;7445;50.774;4.944;2022-10-15T09:08:21;17.40;99.90
14709;DHT22;7445;50.774;4.944;2022-10-15T09:10:59;17.40;99.90
14709;DHT22;7445;50.774;4.944;2022-10-15T09:13:42;17.30;99.90
14709;DHT22;7445;50.774;4.944;2022-10-15T09:16:18;17.40;99.90
14709;DHT22;7445;50.774;4.944;2022-10-15T09:18:49;17.60;99.90
14709;DHT22;7445;50.774;4.944;2022-10-15T09:21:17;17.70;99.90
14709;DHT22;7445;50.774;4.944;2022-10-15T09:23:43;17.70;99.90
14709;DHT22;7445;50.774;4.944;2022-10-15T09:29:10;17.90;99.90
14709;DHT22;7445;50.774;4.944;2022-10-15T09:31:47;18.00;99.90
14709;DHT22;7445;50.774;4.944;2022-10-15T09:34:46;18.10;99.90
14709;DHT22;7445;50.774;4.944;2022-10-15T09:37:26;18.30;99.90
14709;DHT22;7445;50.774;4.944;2022-10-15T09:40:02;18.50;99.90
14709;DHT22;7445;50.774;4.944;2022-10-15T09:42:39;18.50;99.90
14709;DHT22;7445;50.774;4.944;2022-10-15T09:45:11;18.30;99.90
14709;DHT22;7445;50.774;4.944;2022-10-15T09:47:39;18.30;99.90
14709;DHT22;7445;50.774;4.944;2022-10-15T09:50:10;18.30;99.90
14709;DHT22;7445;50.774;4.944;2022-10-15T09:55:55;18.50;99.90
14709;DHT22;7445;50.774;4.944;2022-10-15T09:58:29;18.50;99.90
14709;DHT22;7445;50.774;4.944;2022-10-15T10:01:22;18.50;99.90
14709;DHT22;7445;50.774;4.944;2022-10-15T10:03:53;18.50;99.90
14709;DHT22;7445;50.774;4.944;2022-10-15T10:06:21;18.50;99.90
14709;DHT22;7445;50.774;4.944;2022-10-15T10:08:54;18.50;99.90
14709;DHT22;7445;50.774;4.944;2022-10-15T10:11:22;18.50;99.90
14709;DHT22;7445;50.774;4.944;2022-10-15T10:16:16;18.40;99.90
14709;DHT22;7445;50.774;4.944;2022-10-15T10:18:43;18.40;99.90
14709;DHT22;7445;50.774;4.944;2022-10-15T10:21:27;18.50;99.90
14709;DHT22;7445;50.774;4.944;2022-10-15T10:23:54;18.60;99.90
14709;DHT22;7445;50.774;4.944;2022-10-15T10:26:20;18.70;99.90
14709;DHT22;7445;50.774;4.944;2022-10-15T10:28:53;18.80;99.90
14709;DHT22;7445;50.774;4.944;2022-10-15T10:31:28;18.80;99.90
14709;DHT22;7445;50.774;4.944;2022-10-15T10:34:00;18.80;99.90
14709;DHT22;7445;50.774;4.944;2022-10-15T10:36:35;18.80;99.90
14709;DHT22;7445;50.774;4.944;2022-10-15T10:41:57;18.70;99.90
14709;DHT22;7445;50.774;4.944;2022-10-15T10:44:40;18.90;99.90
14709;DHT22;7445;50.774;4.944;2022-10-15T10:47:31;19.10;99.90
14709;DHT22;7445;50.774;4.944;2022-10-15T10:50:03;19.30;99.90
14709;DHT22;7445;50.774;4.944;2022-10-15T10:52:49;19.50;99.90
14709;DHT22;7445;50.774;4.944;2022-10-15T10:55:22;19.80;99.90
14709;DHT22;7445;50.774;4.944;2022-10-15T10:57:55;19.80;99.90
14709;DHT22;7445;50.774;4.944;2022-10-15T11:00:38;20.00;99.90
14709;DHT22;7445;50.774;4.944;2022-10-15T11:05:53;20.10;99.90
14709;DHT22;7445;50.774;4.944;2022-10-15T11:20:48;19.30;99.90
14709;DHT22;7445;50.774;4.944;2022-10-15T11:24:18;19.20;99.90
14709;DHT22;7445;50.774;4.944;2022-10-15T11:26:42;19.20;99.90
14709;DHT22;7445;50.774;4.944;2022-10-15T11:32:01;19.20;99.90
14709;DHT22;7445;50.774;4.944;2022-10-15T11:43:02;19.50;99.90
14709;DHT22;7445;50.774;4.944;2022-10-15T11:45:59;19.60;99.90
14709;DHT22;7445;50.774;4.944;2022-10-15T11:51:37;19.80;99.90
14709;DHT22;7445;50.774;4.944;2022-10-15T11:56:52;20.00;99.90
14709;DHT22;7445;50.774;4.944;2022-10-15T12:02:25;20.10;99.90
14709;DHT22;7445;50.774;4.944;2022-10-15T12:07:45;20.30;99.90
14709;DHT22;7445;50.774;4.944;2022-10-15T12:10:33;20.20;99.90
14709;DHT22;7445;50.774;4.944;2022-10-15T12:18:31;20.00;99.90
14709;DHT22;7445;50.774;4.944;2022-10-15T12:20:59;19.90;99.90
14709;DHT22;7445;50.774;4.944;2022-10-15T12:23:39;19.70;99.90
14709;DHT22;7445;50.774;4.944;2022-10-15T12:26:31;19.60;99.90
14709;DHT22;7445;50.774;4.944;2022-10-15T12:29:21;19.40;99.90
14709;DHT22;7445;50.774;4.944;2022-10-15T12:31:54;19.00;99.90
14709;DHT22;7445;50.774;4.944;2022-10-15T12:34:29;18.60;99.90
14709;DHT22;7445;50.774;4.944;2022-10-15T12:37:17;18.30;99.90
14709;DHT22;7445;50.774;4.944;2022-10-15T12:39:44;18.10;99.90
14709;DHT22;7445;50.774;4.944;2022-10-15T12:42:23;17.90;99.90
14709;DHT22;7445;50.774;4.944;2022-10-15T12:44:51;17.80;99.90
14709;DHT22;7445;50.774;4.944;2022-10-15T12:47:45;17.90;99.90
14709;DHT22;7445;50.774;4.944;2022-10-15T12:50:25;18.10;99.90
14709;DHT22;7445;50.774;4.944;2022-10-15T12:52:58;18.20;99.90
14709;DHT22;7445;50.774;4.944;2022-10-15T12:57:55;18.30;99.90
14709;DHT22;7445;50.774;4.944;2022-10-15T13:00:42;18.40;99.90
14709;DHT22;7445;50.774;4.944;2022-10-15T13:03:20;18.40;99.90
14709;DHT22;7445;50.774;4.944;2022-10-15T13:05:47;18.50;99.90
14709;DHT22;7445;50.774;4.944;2022-10-15T13:08:18;18.70;99.90
14709;DHT22;7445;50.774;4.944;2022-10-15T13:10:49;18.70;99.90
14709;DHT22;7445;50.774;4.944;2022-10-15T13:13:25;18.80;99.90
14709;DHT22;7445;50.774;4.944;2022-10-15T13:15:59;18.80;99.90
14709;DHT22;7445;50.774;4.944;2022-10-15T13:18:28;18.70;99.90
14709;DHT22;7445;50.774;4.944;2022-10-15T13:20:58;18.70;99.90
14709;DHT22;7445;50.774;4.944;2022-10-15T13:23:33;18.70;99.90
14709;DHT22;7445;50.774;4.944;2022-10-15T13:26:17;18.80;99.90
14709;DHT22;7445;50.774;4.944;2022-10-15T13:28:44;18.90;99.90
14709;DHT22;7445;50.774;4.944;2022-10-15T13:31:25;19.00;99.90
14709;DHT22;7445;50.774;4.944;2022-10-15T13:34:02;18.90;99.90
14709;DHT22;7445;50.774;4.944;2022-10-15T13:36:33;18.90;99.90
14709;DHT22;7445;50.774;4.944;2022-10-15T13:39:03;19.00;99.90
14709;DHT22;7445;50.774;4.944;2022-10-15T13:41:36;19.00;99.90
14709;DHT22;7445;50.774;4.944;2022-10-15T13:44:03;18.90;99.90
14709;DHT22;7445;50.774;4.944;2022-10-15T13:46:32;18.80;99.90
14709;DHT22;7445;50.774;4.944;2022-10-15T13:49:00;18.40;99.90
14709;DHT22;7445;50.774;4.944;2022-10-15T13:51:31;18.30;99.90
14709;DHT22;7445;50.774;4.944;2022-10-15T13:53:59;18.10;99.90
14709;DHT22;7445;50.774;4.944;2022-10-15T13:56:30;17.90;99.90
14709;DHT22;7445;50.774;4.944;2022-10-15T13:58:59;17.80;99.90
14709;DHT22;7445;50.774;4.944;2022-10-15T14:01:27;17.80;99.90
14709;DHT22;7445;50.774;4.944;2022-10-15T14:03:58;17.80;99.90
14709;DHT22;7445;50.774;4.944;2022-10-15T14:06:35;17.80;99.90
14709;DHT22;7445;50.774;4.944;2022-10-15T14:09:20;17.70;99.90
14709;DHT22;7445;50.774;4.944;2022-10-15T14:11:51;17.70;99.90
14709;DHT22;7445;50.774;4.944;2022-10-15T14:16:55;17.60;99.90
14709;DHT22;7445;50.774;4.944;2022-10-15T14:19:23;17.60;99.90
14709;DHT22;7445;50.774;4.944;2022-10-15T14:21:55;17.70;99.90
14709;DHT22;7445;50.774;4.944;2022-10-15T14:24:34;17.70;99.90
14709;DHT22;7445;50.774;4.944;2022-10-15T14:27:16;17.80;99.90
14709;DHT22;7445;50.774;4.944;2022-10-15T14:29:44;18.00;99.90
14709;DHT22;7445;50.774;4.944;2022-10-15T14:32:30;18.10;99.90
14709;DHT22;7445;50.774;4.944;2022-10-15T14:35:01;18.10;99.90
14709;DHT22;7445;50.774;4.944;2022-10-15T14:37:39;18.10;99.90
14709;DHT22;7445;50.774;4.944;2022-10-15T14:42:43;17.90;99.90
14709;DHT22;7445;50.774;4.944;2022-10-15T14:47:57;17.70;99.90
14709;DHT22;7445;50.774;4.944;2022-10-15T14:50:29;17.60;99.90
14709;DHT22;7445;50.774;4.944;2022-10-15T14:52:56;17.60;99.90
14709;DHT22;7445;50.774;4.944;2022-10-15T14:57:49;17.50;99.90
14709;DHT22;7445;50.774;4.944;2022-10-15T15:00:28;17.40;99.90
14709;DHT22;7445;50.774;4.944;2022-10-15T15:02:56;17.40;99.90
14709;DHT22;7445;50.774;4.944;2022-10-15T15:05:25;17.40;99.90
14709;DHT22;7445;50.774;4.944;2022-10-15T15:07:51;17.40;99.90
14709;DHT22;7445;50.774;4.944;2022-10-15T15:10:17;17.40;99.90
14709;DHT22;7445;50.774;4.944;2022-10-15T15:12:52;17.50;99.90
14709;DHT22;7445;50.774;4.944;2022-10-15T15:15:24;17.60;99.90
14709;DHT22;7445;50.774;4.944;2022-10-15T15:17:50;17.60;99.90
14709;DHT22;7445;50.774;4.944;2022-10-15T15:20:21;17.60;99.90
14709;DHT22;7445;50.774;4.944;2022-10-15T15:22:55;17.50;99.90
14709;DHT22;7445;50.774;4.944;2022-10-15T15:25:41;17.40;99.90
14709;DHT22;7445;50.774;4.944;2022-10-15T15:28:13;17.40;99.90
14709;DHT22;7445;50.774;4.944;2022-10-15T15:30:44;17.30;99.90
14709;DHT22;7445;50.774;4.944;2022-10-15T15:33:34;17.20;99.90
14709;DHT22;7445;50.774;4.944;2022-10-15T15:38:34;17.10;99.90
14709;DHT22;7445;50.774;4.944;2022-10-15T15:41:14;17.10;99.90
14709;DHT22;7445;50.774;4.944;2022-10-15T15:43:40;17.10;99.90
14709;DHT22;7445;50.774;4.944;2022-10-15T15:46:09;17.00;99.90
14709;DHT22;7445;50.774;4.944;2022-10-15T15:48:35;16.90;99.90
14709;DHT22;7445;50.774;4.944;2022-10-15T15:51:04;16.80;99.90
14709;DHT22;7445;50.774;4.944;2022-10-15T15:53:30;16.70;99.90
14709;DHT22;7445;50.774;4.944;2022-10-15T15:55:57;16.60;99.90
14709;DHT22;7445;50.774;4.944;2022-10-15T15:58:29;16.50;99.90
14709;DHT22;7445;50.774;4.944;2022-10-15T16:00:57;16.40;99.90
14709;DHT22;7445;50.774;4.944;2022-10-15T16:03:43;16.30;99.90
14709;DHT22;7445;50.774;4.944;2022-10-15T16:06:09;16.30;99.90
14709;DHT22;7445;50.774;4.944;2022-10-15T16:08:36;16.20;99.90
14709;DHT22;7445;50.774;4.944;2022-10-15T16:11:05;16.10;99.90
14709;DHT22;7445;50.774;4.944;2022-10-15T16:13:32;16.10;99.90
14709;DHT22;7445;50.774;4.944;2022-10-15T16:16:01;16.00;99.90
14709;DHT22;7445;50.774;4.944;2022-10-15T16:18:27;16.00;99.90
14709;DHT22;7445;50.774;4.944;2022-10-15T16:20:54;15.90;99.90
14709;DHT22;7445;50.774;4.944;2022-10-15T16:23:20;15.90;99.90
14709;DHT22;7445;50.774;4.944;2022-10-15T16:25:52;15.80;99.90
14709;DHT22;7445;50.774;4.944;2022-10-15T16:28:18;15.80;99.90
14709;DHT22;7445;50.774;4.944;2022-10-15T16:30:44;15.70;99.90
14709;DHT22;7445;50.774;4.944;2022-10-15T16:33:13;15.60;99.90
14709;DHT22;7445;50.774;4.944;2022-10-15T16:35:42;15.50;99.90
14709;DHT22;7445;50.774;4.944;2022-10-15T16:38:17;15.50;99.90
14709;DHT22;7445;50.774;4.944;2022-10-15T16:40:45;15.50;99.90
14709;DHT22;7445;50.774;4.944;2022-10-15T16:43:11;15.30;99.90
14709;DHT22;7445;50.774;4.944;2022-10-15T16:45:43;15.20;99.90
14709;DHT22;7445;50.774;4.944;2022-10-15T16:48:23;15.20;99.90
14709;DHT22;7445;50.774;4.944;2022-10-15T16:51:06;15.10;99.90
14709;DHT22;7445;50.774;4.944;2022-10-15T16:53:56;15.10;99.90
14709;DHT22;7445;50.774;4.944;2022-10-15T16:56:25;15.00;99.90
14709;DHT22;7445;50.774;4.944;2022-10-15T16:58:50;14.90;99.90
14709;DHT22;7445;50.774;4.944;2022-10-15T17:01:19;14.90;99.90
14709;DHT22;7445;50.774;4.944;2022-10-15T17:03:45;14.80;99.90
14709;DHT22;7445;50.774;4.944;2022-10-15T17:06:14;14.80;99.90
14709;DHT22;7445;50.774;4.944;2022-10-15T17:11:09;14.60;99.90
14709;DHT22;7445;50.774;4.944;2022-10-15T17:13:35;14.60;99.90
14709;DHT22;7445;50.774;4.944;2022-10-15T17:18:38;14.50;99.90
14709;DHT22;7445;50.774;4.944;2022-10-15T17:21:06;14.40;99.90
14709;DHT22;7445;50.774;4.944;2022-10-15T17:23:32;14.40;99.90
14709;DHT22;7445;50.774;4.944;2022-10-15T17:26:05;14.40;99.90
14709;DHT22;7445;50.774;4.944;2022-10-15T17:28:33;14.30;99.90
14709;DHT22;7445;50.774;4.944;2022-10-15T17:31:07;14.30;99.90
14709;DHT22;7445;50.774;4.944;2022-10-15T17:33:35;14.20;99.90
14709;DHT22;7445;50.774;4.944;2022-10-15T17:36:16;14.20;99.90
14709;DHT22;7445;50.774;4.944;2022-10-15T17:38:43;14.20;99.90
14709;DHT22;7445;50.774;4.944;2022-10-15T17:41:15;14.10;99.90
14709;DHT22;7445;50.774;4.944;2022-10-15T17:43:41;14.20;99.90
14709;DHT22;7445;50.774;4.944;2022-10-15T17:46:10;14.10;99.90
14709;DHT22;7445;50.774;4.944;2022-10-15T17:48:42;14.10;99.90
14709;DHT22;7445;50.774;4.944;2022-10-15T17:51:21;14.10;99.90
14709;DHT22;7445;50.774;4.944;2022-10-15T17:53:47;14.10;99.90